Time;durP1;ratioP1;P1;durP2;ratioP2;P2;SDS_P1;SDS_P2;PMS_P1;PMS_P2;Temp;Humidity;BMP_temperature;BMP_pressure;BME280_temperature;BME280_humidity;BME280_pressure;Samples;Min_cycle;Max_cycle;Signal;HPM_P1;HPM_P2
2023/08/30 00:01:03;;;;;;;;;;;;;;;;;;5049112;28;20358;-83
2023/08/30 00:03:29;;;;;;;;;;;;;;;;;;5048748;28;20053;-83
2023/08/30 00:05:55;;;;;;;;;;;;;;;;;;5056384;28;19924;-84
2023/08/30 00:08:21;;;;;;;;;;;;;;;;;;5067844;28;20626;-83
2023/08/30 00:10:47;;;;;;;;;;;;;;;;;;5061301;28;19985;-83
2023/08/30 00:13:13;;;;;;;;;;;;;;;;;;5063130;28;19928;-83
2023/08/30 00:15:39;;;;;;;;;;;;;;;;;;5043063;28;19924;-83
2023/08/30 00:18:05;;;;;;;;;;;;;;;;;;5049743;28;19931;-83
2023/08/30 00:20:31;;;;;;;;;;;;;;;;;;5062703;28;19994;-83
2023/08/30 00:22:57;;;;;;;;;;;;;;;;;;5047342;28;19967;-83
2023/08/30 00:25:23;;;;;;;;;;;;;;;;;;5080660;28;20017;-84
2023/08/30 00:27:49;;;;;;;;;;;;;;;;;;5061135;28;21607;-83
2023/08/30 00:30:15;;;;;;;;;;;;;;;;;;5063447;28;19924;-83
2023/08/30 00:32:41;;;;;;;;;;;;;;;;;;5048820;28;20026;-83
2023/08/30 00:35:07;;;;;;;;;;;;;;;;;;5058570;28;19920;-83
2023/08/30 00:37:33;;;;;;;;;;;;;;;;;;5042434;28;19951;-82
2023/08/30 00:39:59;;;;;;;;;;;;;;;;;;5045943;28;19920;-83
2023/08/30 00:42:27;;;;;;;;;;;;;;;;;;5060403;28;19981;-83
2023/08/30 00:44:53;;;;;;;;;;;;;;;;;;5063104;28;19924;-83
2023/08/30 00:47:19;;;;;;;;;;;;;;;;;;5065710;28;19924;-83
2023/08/30 00:49:45;;;;;;;;;;;;;;;;;;5049189;28;20301;-83
2023/08/30 00:52:11;;;;;;;;;;;;;;;;;;5047856;28;19931;-83
2023/08/30 00:54:37;;;;;;;;;;;;;;;;;;5066219;28;19928;-83
2023/08/30 00:57:03;;;;;;;;;;;;;;;;;;5046867;28;19931;-83
2023/08/30 00:59:29;;;;;;;;;;;;;;;;;;5046652;28;19924;-83
2023/08/30 01:01:55;;;;;;;;;;;;;;;;;;5040318;28;19928;-82
2023/08/30 01:04:21;;;;;;;;;;;;;;;;;;5048357;28;19957;-83
2023/08/30 01:06:48;;;;;;;;;;;;;;;;;;5065194;28;20027;-84
2023/08/30 01:09:14;;;;;;;;;;;;;;;;;;5064715;28;19924;-83
2023/08/30 01:11:40;;;;;;;;;;;;;;;;;;5057582;28;20058;-83
2023/08/30 01:17:02;;;;;;;;;;;;;;;;;;5057838;28;19983;-84
2023/08/30 01:19:31;;;;;;;;;;;;;;;;;;5046501;28;19935;-83
2023/08/30 01:21:57;;;;;;;;;;;;;;;;;;5061272;28;19928;-83
2023/08/30 01:24:23;;;;;;;;;;;;;;;;;;5061942;28;19930;-83
2023/08/30 01:26:49;;;;;;;;;;;;;;;;;;5058553;28;19928;-83
2023/08/30 01:29:15;;;;;;;;;;;;;;;;;;5049527;28;19965;-83
2023/08/30 01:31:41;;;;;;;;;;;;;;;;;;5054631;28;20651;-83
2023/08/30 01:34:07;;;;;;;;;;;;;;;;;;5082473;28;20007;-83
2023/08/30 01:36:33;;;;;;;;;;;;;;;;;;5041752;28;19931;-83
2023/08/30 01:38:59;;;;;;;;;;;;;;;;;;5044361;28;20016;-83
2023/08/30 01:41:25;;;;;;;;;;;;;;;;;;5044963;28;19934;-83
2023/08/30 01:43:52;;;;;;;;;;;;;;;;;;5060912;28;19920;-83
2023/08/30 01:46:19;;;;;;;;;;;;;;;;;;5074062;28;19928;-83
2023/08/30 01:48:45;;;;;;;;;;;;;;;;;;5064051;28;20374;-84
2023/08/30 01:51:11;;;;;;;;;;;;;;;;;;5047372;28;19970;-84
2023/08/30 01:53:37;;;;;;;;;;;;;;;;;;5045519;28;20358;-83
2023/08/30 01:56:03;;;;;;;;;;;;;;;;;;5032075;28;19954;-83
2023/08/30 01:58:31;;;;;;;;;;;;;;;;;;5057977;28;19928;-83
2023/08/30 02:00:57;;;;;;;;;;;;;;;;;;5043536;28;20039;-83
2023/08/30 02:03:26;;;;;;;;;;;;;;;;;;5046812;28;19928;-83
2023/08/30 02:05:55;;;;;;;;;;;;;;;;;;5061883;28;19923;-83
2023/08/30 02:08:21;;;;;;;;;;;;;;;;;;5049198;28;19989;-83
2023/08/30 02:14:10;;;;;;;;;;;;;;;;;;5025368;28;19980;-83
2023/08/30 02:16:45;;;;;;;;;;;;;;;;;;5004137;28;20027;-83
2023/08/30 02:19:16;;;;;;;;;;;;;;;;;;5033913;28;20046;-83
2023/08/30 02:21:43;;;;;;;;;;;;;;;;;;5047321;28;19938;-83
2023/08/30 02:24:09;;;;;;;;;;;;;;;;;;5077885;28;19928;-83
2023/08/30 02:26:38;;;;;;;;;;;;;;;;;;5043620;28;19928;-83
2023/08/30 02:29:04;;;;;;;;;;;;;;;;;;5066003;28;19920;-83
2023/08/30 02:31:40;;;;;;;;;;;;;;;;;;5057415;28;19978;-83
2023/08/30 02:34:06;;;;;;;;;;;;;;;;;;5050425;28;19928;-83
2023/08/30 02:36:32;;;;;;;;;;;;;;;;;;5044225;28;20386;-83
2023/08/30 02:38:57;;;;;;;;;;;;;;;;;;5059949;28;20041;-83
2023/08/30 02:41:23;;;;;;;;;;;;;;;;;;5037520;28;19927;-83
2023/08/30 02:43:49;;;;;;;;;;;;;;;;;;5040369;28;19920;-83
2023/08/30 02:46:15;;;;;;;;;;;;;;;;;;5040161;28;19941;-83
2023/08/30 02:48:41;;;;;;;;;;;;;;;;;;5046545;28;19924;-83
2023/08/30 02:51:07;;;;;;;;;;;;;;;;;;5061010;28;20449;-83
2023/08/30 02:53:33;;;;;;;;;;;;;;;;;;5065602;28;19962;-83
2023/08/30 02:55:59;;;;;;;;;;;;;;;;;;5058251;28;19998;-83
2023/08/30 02:58:25;;;;;;;;;;;;;;;;;;5059851;28;20057;-83
2023/08/30 03:00:51;;;;;;;;;;;;;;;;;;5066096;28;19932;-83
2023/08/30 03:03:17;;;;;;;;;;;;;;;;;;5048144;28;19966;-83
2023/08/30 03:05:43;;;;;;;;;;;;;;;;;;5049333;28;20029;-82
2023/08/30 03:08:09;;;;;;;;;;;;;;;;;;5068706;28;19924;-83
2023/08/30 03:10:41;;;;;;;;;;;;;;;;;;5047213;28;19947;-83
2023/08/30 03:13:07;;;;;;;;;;;;;;;;;;5049743;28;20239;-83
2023/08/30 03:15:33;;;;;;;;;;;;;;;;;;5066274;28;19963;-83
2023/08/30 03:17:59;;;;;;;;;;;;;;;;;;5059961;28;19955;-83
2023/08/30 03:20:25;;;;;;;;;;;;;;;;;;5047989;28;20291;-83
2023/08/30 03:22:51;;;;;;;;;;;;;;;;;;5050235;28;19928;-83
2023/08/30 03:25:17;;;;;;;;;;;;;;;;;;5067127;28;20432;-83
2023/08/30 03:27:46;;;;;;;;;;;;;;;;;;5045408;28;19920;-83
2023/08/30 03:30:12;;;;;;;;;;;;;;;;;;5063328;28;19931;-83
2023/08/30 03:32:38;;;;;;;;;;;;;;;;;;5063378;28;19928;-83
2023/08/30 03:35:05;;;;;;;;;;;;;;;;;;5065246;28;19924;-82
2023/08/30 03:37:31;;;;;;;;;;;;;;;;;;5050249;28;19966;-83
2023/08/30 03:43:14;;;;;;;;;;;;;;;;;;5042597;28;19971;-83
2023/08/30 03:45:39;;;;;;;;;;;;;;;;;;5045205;28;20011;-83
2023/08/30 03:48:05;;;;;;;;;;;;;;;;;;5081659;28;20366;-83
2023/08/30 03:50:40;;;;;;;;;;;;;;;;;;5061978;28;19977;-83
2023/08/30 03:53:06;;;;;;;;;;;;;;;;;;5044499;28;19920;-83
2023/08/30 03:55:33;;;;;;;;;;;;;;;;;;5047800;28;19931;-83
2023/08/30 03:58:03;;;;;;;;;;;;;;;;;;5047406;28;19932;-83
2023/08/30 04:00:31;;;;;;;;;;;;;;;;;;5043837;28;19951;-83
2023/08/30 04:03:16;;;;;;;;;;;;;;;;;;5247799;22;19935;-83
2023/08/30 04:05:42;;;;;;;;;;;;;;;;;;5039843;28;19929;-83
2023/08/30 04:08:08;;;;;;;;;;;;;;;;;;5057243;28;19921;-83
2023/08/30 04:10:34;;;;;;;;;;;;;;;;;;5038994;28;19924;-83
2023/08/30 04:13:21;;;;;;;;;;;;;;;;;;5062658;28;19973;-83
2023/08/30 04:15:47;;;;;;;;;;;;;;;;;;5043688;28;19967;-83
2023/08/30 04:18:36;;;;;;;;;;;;;;;;;;;;;
2023/08/30 04:21:17;;;;;;;;;;;;;;;;;;5054899;28;20024;-83
2023/08/30 04:23:48;;;;;;;;;;;;;;;;;;5023342;28;19924;-83
2023/08/30 04:26:14;;;;;;;;;;;;;;;;;;5057867;28;19929;-83
2023/08/30 04:28:43;;;;;;;;;;;;;;;;;;5037169;28;19932;-83
2023/08/30 04:31:09;;;;;;;;;;;;;;;;;;5042225;28;19928;-83
2023/08/30 04:33:35;;;;;;;;;;;;;;;;;;5023681;28;20237;-83
2023/08/30 04:36:03;;;;;;;;;;;;;;;;;;5040992;28;19977;-83
2023/08/30 04:38:29;;;;;;;;;;;;;;;;;;5037276;28;19968;-84
2023/08/30 04:40:55;;;;;;;;;;;;;;;;;;5010040;28;20035;-83
2023/08/30 04:43:21;;;;;;;;;;;;;;;;;;5023473;28;19951;-83
2023/08/30 04:45:47;;;;;;;;;;;;;;;;;;5009810;28;20702;-83
2023/08/30 04:48:14;;;;;;;;;;;;;;;;;;5020542;28;19947;-83
2023/08/30 04:50:40;;;;;;;;;;;;;;;;;;5038630;28;19928;-83
2023/08/30 04:53:06;;;;;;;;;;;;;;;;;;5021698;28;20452;-84
2023/08/30 04:55:32;;;;;;;;;;;;;;;;;;5028801;28;19931;-84
2023/08/30 04:57:58;;;;;;;;;;;;;;;;;;5028582;28;20031;-84
2023/08/30 05:00:23;;;;;;;;;;;;;;;;;;5044055;28;19984;-84
2023/08/30 05:02:49;;;;;;;;;;;;;;;;;;5020039;28;20306;-83
2023/08/30 05:05:15;;;;;;;;;;;;;;;;;;5020957;28;20009;-84
2023/08/30 05:07:41;;;;;;;;;;;;;;;;;;5022609;28;20000;-83
2023/08/30 05:10:07;;;;;;;;;;;;;;;;;;5024113;28;19925;-83
2023/08/30 05:12:34;;;;;;;;;;;;;;;;;;5024440;28;19951;-84
2023/08/30 05:15:00;;;;;;;;;;;;;;;;;;5024659;28;20359;-83
2023/08/30 05:17:28;;;;;;;;;;;;;;;;;;5019171;28;19951;-83
2023/08/30 05:19:53;;;;;;;;;;;;;;;;;;5031240;28;19975;-84
2023/08/30 05:22:19;;;;;;;;;;;;;;;;;;5007170;28;19928;-83
2023/08/30 05:24:45;;;;;;;;;;;;;;;;;;5009699;28;20015;-84
2023/08/30 05:27:12;;;;;;;;;;;;;;;;;;5022199;28;19921;-83
2023/08/30 05:29:38;;;;;;;;;;;;;;;;;;5008441;28;20310;-84
2023/08/30 05:32:04;;;;;;;;;;;;;;;;;;5025009;28;19925;-84
2023/08/30 05:34:31;;;;;;;;;;;;;;;;;;5023178;28;19921;-84
2023/08/30 05:36:57;;;;;;;;;;;;;;;;;;5022970;28;20066;-84
2023/08/30 05:39:22;;;;;;;;;;;;;;;;;;5021785;28;19997;-84
2023/08/30 05:41:48;;;;;;;;;;;;;;;;;;5019025;28;19929;-84
2023/08/30 05:44:14;;;;;;;;;;;;;;;;;;5019860;28;19925;-84
2023/08/30 05:46:40;;;;;;;;;;;;;;;;;;5023942;28;19931;-84
2023/08/30 05:49:06;;;;;;;;;;;;;;;;;;5024430;28;20310;-84
2023/08/30 05:51:32;;;;;;;;;;;;;;;;;;5021165;28;19921;-84
2023/08/30 05:53:58;;;;;;;;;;;;;;;;;;5012922;28;20398;-84
2023/08/30 05:56:24;;;;;;;;;;;;;;;;;;5023813;28;20022;-84
2023/08/30 05:58:50;;;;;;;;;;;;;;;;;;5039065;28;19932;-83
2023/08/30 06:01:16;;;;;;;;;;;;;;;;;;5035176;28;19932;-83
2023/08/30 06:03:42;;;;;;;;;;;;;;;;;;5012484;28;19956;-83
2023/08/30 06:06:08;;;;;;;;;;;;;;;;;;5012399;28;19933;-84
2023/08/30 06:08:34;;;;;;;;;;;;;;;;;;5015059;28;19932;-83
2023/08/30 06:11:00;;;;;;;;;;;;;;;;;;4993121;28;20277;-83
2023/08/30 06:13:26;;;;;;;;;;;;;;;;;;4982661;28;19934;-84
2023/08/30 06:15:52;;;;;;;;;;;;;;;;;;5010602;28;19925;-84
2023/08/30 06:18:18;;;;;;;;;;;;;;;;;;5010860;28;20567;-83
2023/08/30 06:20:44;;;;;;;;;;;;;;;;;;5006751;28;20027;-84
2023/08/30 06:23:10;;;;;;;;;;;;;;;;;;5008682;28;19925;-84
2023/08/30 06:25:36;;;;;;;;;;;;;;;;;;5021798;28;19929;-84
2023/08/30 06:28:03;;;;;;;;;;;;;;;;;;5015758;28;19925;-84
2023/08/30 06:30:29;;;;;;;;;;;;;;;;;;4989197;28;20315;-83
2023/08/30 06:32:58;;;;;;;;;;;;;;;;;;5005022;28;19925;-84
2023/08/30 06:35:24;;;;;;;;;;;;;;;;;;5019387;28;19998;-83
2023/08/30 06:37:53;;;;;;;;;;;;;;;;;;5007500;28;20348;-84
2023/08/30 06:40:19;;;;;;;;;;;;;;;;;;5006516;28;19925;-84
2023/08/30 06:42:47;;;;;;;;;;;;;;;;;;4998456;28;19924;-84
2023/08/30 06:45:16;;;;;;;;;;;;;;;;;;5004295;28;19925;-84
2023/08/30 06:47:44;;;;;;;;;;;;;;;;;;5007213;28;20004;-84
2023/08/30 06:50:10;;;;;;;;;;;;;;;;;;5009713;28;19972;-84
2023/08/30 06:52:36;;;;;;;;;;;;;;;;;;5033842;28;19925;-83
2023/08/30 06:55:02;;;;;;;;;;;;;;;;;;5015219;28;19929;-84
2023/08/30 06:57:28;;;;;;;;;;;;;;;;;;5003350;28;19948;-83
2023/08/30 06:59:54;;;;;;;;;;;;;;;;;;5011585;28;19971;-84
2023/08/30 07:02:32;;;;;;;;;;;;;;;;;;5010009;28;19932;-84
2023/08/30 07:04:58;;;;;;;;;;;;;;;;;;4988227;28;19997;-83
2023/08/30 07:07:24;;;;;;;;;;;;;;;;;;5005803;28;19931;-84
2023/08/30 07:09:50;;;;;;;;;;;;;;;;;;5020617;28;19929;-84
2023/08/30 07:12:16;;;;;;;;;;;;;;;;;;5016466;28;19929;-84
2023/08/30 07:14:45;;;;;;;;;;;;;;;;;;5001299;28;19925;-84
2023/08/30 07:17:11;;;;;;;;;;;;;;;;;;4985090;28;19972;-84
2023/08/30 07:19:37;;;;;;;;;;;;;;;;;;4988108;28;19925;-84
2023/08/30 07:22:06;;;;;;;;;;;;;;;;;;4997952;28;19960;-84
2023/08/30 07:24:32;;;;;;;;;;;;;;;;;;4982365;28;20397;-84
2023/08/30 07:26:58;;;;;;;;;;;;;;;;;;5022664;28;19929;-84
2023/08/30 07:29:24;;;;;;;;;;;;;;;;;;5000885;28;20284;-84
2023/08/30 07:31:54;;;;;;;;;;;;;;;;;;4999895;28;20023;-83
2023/08/30 07:34:22;;;;;;;;;;;;;;;;;;4986940;28;19930;-84
2023/08/30 07:36:48;;;;;;;;;;;;;;;;;;5004314;28;19932;-84
2023/08/30 07:39:14;;;;;;;;;;;;;;;;;;5020720;28;19925;-84
2023/08/30 07:41:40;;;;;;;;;;;;;;;;;;4986936;28;19933;-84
2023/08/30 07:44:09;;;;;;;;;;;;;;;;;;4981638;28;20067;-84
2023/08/30 07:46:35;;;;;;;;;;;;;;;;;;5002133;28;19925;-84
2023/08/30 07:49:02;;;;;;;;;;;;;;;;;;4986461;28;20283;-84
2023/08/30 07:51:28;;;;;;;;;;;;;;;;;;4989908;28;19929;-84
2023/08/30 07:53:54;;;;;;;;;;;;;;;;;;5004712;28;19924;-84
2023/08/30 07:56:20;;;;;;;;;;;;;;;;;;5006692;28;19933;-84
2023/08/30 07:58:46;;;;;;;;;;;;;;;;;;5021352;28;19979;-84
2023/08/30 08:01:12;;;;;;;;;;;;;;;;;;4987235;28;19943;-84
2023/08/30 08:03:38;;;;;;;;;;;;;;;;;;5015161;28;19963;-84
2023/08/30 08:06:06;;;;;;;;;;;;;;;;;;5020978;28;19951;-84
2023/08/30 08:08:35;;;;;;;;;;;;;;;;;;5015663;28;19928;-84
2023/08/30 08:11:01;;;;;;;;;;;;;;;;;;5023712;28;19927;-84
2023/08/30 08:13:27;;;;;;;;;;;;;;;;;;5022929;28;19921;-84
2023/08/30 08:15:56;;;;;;;;;;;;;;;;;;5025441;28;19962;-84
2023/08/30 08:18:31;;;;;;;;;;;;;;;;;;5027329;28;19925;-84
2023/08/30 08:20:59;;;;;;;;;;;;;;;;;;5003216;28;19940;-84
2023/08/30 08:23:25;;;;;;;;;;;;;;;;;;5006677;28;20459;-84
2023/08/30 08:25:51;;;;;;;;;;;;;;;;;;5029318;28;20011;-84
2023/08/30 08:28:17;;;;;;;;;;;;;;;;;;5045655;28;20407;-84
2023/08/30 08:30:45;;;;;;;;;;;;;;;;;;5011471;28;19921;-84
2023/08/30 08:33:11;;;;;;;;;;;;;;;;;;5033891;28;19924;-84
2023/08/30 08:35:37;;;;;;;;;;;;;;;;;;5027985;28;20345;-84
2023/08/30 08:38:03;;;;;;;;;;;;;;;;;;5029070;28;19928;-84
2023/08/30 08:40:29;;;;;;;;;;;;;;;;;;5023246;28;20461;-84
2023/08/30 08:42:56;;;;;;;;;;;;;;;;;;5025454;28;19971;-84
2023/08/30 08:45:22;;;;;;;;;;;;;;;;;;5012424;28;19925;-84
2023/08/30 08:47:48;;;;;;;;;;;;;;;;;;5021055;28;19925;-84
2023/08/30 08:50:17;;;;;;;;;;;;;;;;;;5003195;28;19929;-86
2023/08/30 08:52:53;;;;;;;;;;;;;;;;;;5025342;28;19936;-86
2023/08/30 08:55:35;;;;;;;;;;;;;;;;;;5046755;28;19943;-86
2023/08/30 09:01:02;;;;;;;;;;;;;;;;;;5022336;28;19933;-85
2023/08/30 09:06:16;;;;;;;;;;;;;;;;;;5028004;28;20506;-85
2023/08/30 09:08:45;;;;;;;;;;;;;;;;;;5020322;28;19952;-85
2023/08/30 09:11:11;;;;;;;;;;;;;;;;;;5025579;28;19928;-87
2023/08/30 09:14:04;;;;;;;;;;;;;;;;;;5026912;28;19928;-87
2023/08/30 09:16:32;;;;;;;;;;;;;;;;;;5018524;28;19924;-84
2023/08/30 09:19:02;;;;;;;;;;;;;;;;;;5038970;28;20302;-84
2023/08/30 09:21:28;;;;;;;;;;;;;;;;;;5026620;28;19929;-84
2023/08/30 09:23:54;;;;;;;;;;;;;;;;;;5007126;28;20470;-83
2023/08/30 09:26:21;;;;;;;;;;;;;;;;;;5041189;28;19936;-84
2023/08/30 09:28:47;;;;;;;;;;;;;;;;;;5040348;28;19925;-83
2023/08/30 09:31:13;;;;;;;;;;;;;;;;;;5042125;28;20276;-83
2023/08/30 09:33:39;;;;;;;;;;;;;;;;;;5038106;28;19935;-83
2023/08/30 09:36:05;;;;;;;;;;;;;;;;;;5025317;28;19927;-83
2023/08/30 09:38:31;;;;;;;;;;;;;;;;;;5024308;28;19925;-83
2023/08/30 09:40:57;;;;;;;;;;;;;;;;;;5022766;28;19939;-83
2023/08/30 09:43:23;;;;;;;;;;;;;;;;;;5022115;28;20366;-83
2023/08/30 09:45:49;;;;;;;;;;;;;;;;;;5026860;28;20007;-84
2023/08/30 09:48:15;;;;;;;;;;;;;;;;;;5039153;28;19925;-83
2023/08/30 09:50:41;;;;;;;;;;;;;;;;;;5012570;28;20382;-84
2023/08/30 09:53:10;;;;;;;;;;;;;;;;;;5025355;28;19935;-84
2023/08/30 09:55:46;;;;;;;;;;;;;;;;;;;;;
2023/08/30 09:58:27;;;;;;;;;;;;;;;;;;5024245;28;20024;-84
2023/08/30 10:00:53;;;;;;;;;;;;;;;;;;5023716;28;19929;-84
2023/08/30 10:03:19;;;;;;;;;;;;;;;;;;5020310;28;20502;-84
2023/08/30 10:05:45;;;;;;;;;;;;;;;;;;5012059;28;19929;-84
2023/08/30 10:08:11;;;;;;;;;;;;;;;;;;5019959;28;19945;-84
2023/08/30 10:10:37;;;;;;;;;;;;;;;;;;5008083;28;19990;-84
2023/08/30 10:13:03;;;;;;;;;;;;;;;;;;5008556;28;20371;-84
2023/08/30 10:15:29;;;;;;;;;;;;;;;;;;5017624;28;19940;-84
2023/08/30 10:17:55;;;;;;;;;;;;;;;;;;5017495;28;19925;-84
2023/08/30 10:20:21;;;;;;;;;;;;;;;;;;5018724;28;19921;-84
2023/08/30 10:22:47;;;;;;;;;;;;;;;;;;5021588;28;20382;-84
2023/08/30 10:25:16;;;;;;;;;;;;;;;;;;5021809;28;20047;-84
2023/08/30 10:27:48;;;;;;;;;;;;;;;;;;5021527;28;19929;-84
2023/08/30 10:30:17;;;;;;;;;;;;;;;;;;5001462;28;19973;-84
2023/08/30 10:32:43;;;;;;;;;;;;;;;;;;5021631;28;19977;-84
2023/08/30 10:35:09;;;;;;;;;;;;;;;;;;5021678;28;19971;-84
2023/08/30 10:37:35;;;;;;;;;;;;;;;;;;5005809;28;19925;-84
2023/08/30 10:40:05;;;;;;;;;;;;;;;;;;5006482;28;20734;-85
2023/08/30 10:42:32;;;;;;;;;;;;;;;;;;5020320;28;19941;-84
2023/08/30 10:44:58;;;;;;;;;;;;;;;;;;5003786;28;20311;-84
2023/08/30 10:47:25;;;;;;;;;;;;;;;;;;5001828;28;20396;-84
2023/08/30 10:49:51;;;;;;;;;;;;;;;;;;5038031;28;19978;-85
2023/08/30 10:52:17;;;;;;;;;;;;;;;;;;4995573;28;19932;-85
2023/08/30 10:54:46;;;;;;;;;;;;;;;;;;5017714;28;19936;-85
2023/08/30 10:57:20;;;;;;;;;;;;;;;;;;5004288;28;19925;-86
2023/08/30 10:59:49;;;;;;;;;;;;;;;;;;5002585;28;20482;-85
2023/08/30 11:02:21;;;;;;;;;;;;;;;;;;5030723;28;19968;-85
2023/08/30 11:04:53;;;;;;;;;;;;;;;;;;4990248;28;19929;-86
2023/08/30 11:07:51;;;;;;;;;;;;;;;;;;5011708;28;19979;-85
2023/08/30 11:10:20;;;;;;;;;;;;;;;;;;4996450;28;19933;-85
2023/08/30 11:12:57;;;;;;;;;;;;;;;;;;;;;
2023/08/30 11:15:33;;;;;;;;;;;;;;;;;;4979976;28;19929;-85
2023/08/30 11:17:59;;;;;;;;;;;;;;;;;;4996735;28;19925;-84
2023/08/30 11:23:20;;;;;;;;;;;;;;;;;;4969286;28;19925;-85
2023/08/30 11:25:46;;;;;;;;;;;;;;;;;;4979077;28;19930;-84
2023/08/30 11:28:12;;;;;;;;;;;;;;;;;;4982038;28;20346;-85
2023/08/30 11:30:41;;;;;;;;;;;;;;;;;;4981487;28;20072;-85
2023/08/30 11:33:07;;;;;;;;;;;;;;;;;;4982399;28;19983;-85
2023/08/30 11:35:33;;;;;;;;;;;;;;;;;;4967112;28;19999;-85
2023/08/30 11:38:05;;;;;;;;;;;;;;;;;;4981842;28;19925;-85
2023/08/30 11:40:31;;;;;;;;;;;;;;;;;;4986614;28;19924;-86
2023/08/30 11:42:59;;;;;;;;;;;;;;;;;;5006337;28;19933;-85
2023/08/30 11:45:25;;;;;;;;;;;;;;;;;;4982272;28;19952;-85
2023/08/30 11:48:00;;;;;;;;;;;;;;;;;;5000018;28;19925;-86
2023/08/30 11:50:26;;;;;;;;;;;;;;;;;;5001873;28;19925;-84
2023/08/30 11:52:52;;;;;;;;;;;;;;;;;;5006515;28;19932;-86
2023/08/30 11:58:35;;;;;;;;;;;;;;;;;;4984029;28;19929;-86
2023/08/30 12:01:04;;;;;;;;;;;;;;;;;;5005789;28;19933;-85
2023/08/30 12:03:30;;;;;;;;;;;;;;;;;;4995229;28;19932;-85
2023/08/30 12:06:09;;;;;;;;;;;;;;;;;;;;;
2023/08/30 12:08:52;;;;;;;;;;;;;;;;;;5050382;28;19950;-86
2023/08/30 12:11:20;;;;;;;;;;;;;;;;;;5033421;28;19972;-86
2023/08/30 12:13:47;;;;;;;;;;;;;;;;;;5037133;28;19951;-86
2023/08/30 12:16:13;;;;;;;;;;;;;;;;;;5025017;28;19925;-84
2023/08/30 12:21:44;;;;;;;;;;;;;;;;;;4962120;28;19933;-86
2023/08/30 12:24:43;;;;;;;;;;;;;;;;;;4978420;28;19993;-85
2023/08/30 12:27:02;;;;;;;;;;;;;;;;;;5001284;28;20488;-84
2023/08/30 12:29:28;;;;;;;;;;;;;;;;;;5023128;28;19933;-85
2023/08/30 12:32:03;;;;;;;;;;;;;;;;;;5023376;28;20395;-85
2023/08/30 12:34:35;;;;;;;;;;;;;;;;;;5022723;28;19935;-85
2023/08/30 12:37:02;;;;;;;;;;;;;;;;;;5023994;28;19928;-84
2023/08/30 12:39:28;;;;;;;;;;;;;;;;;;5022331;28;20430;-84
2023/08/30 12:41:57;;;;;;;;;;;;;;;;;;5023056;28;19976;-84
2023/08/30 12:44:26;;;;;;;;;;;;;;;;;;5019094;28;19924;-85
2023/08/30 12:46:52;;;;;;;;;;;;;;;;;;5017608;28;19987;-85
2023/08/30 12:49:21;;;;;;;;;;;;;;;;;;5040023;28;19929;-85
2023/08/30 12:51:47;;;;;;;;;;;;;;;;;;5020950;28;19921;-85
2023/08/30 12:54:13;;;;;;;;;;;;;;;;;;5027380;28;20383;-84
2023/08/30 12:56:39;;;;;;;;;;;;;;;;;;5037439;28;19935;-85
2023/08/30 12:59:05;;;;;;;;;;;;;;;;;;5028530;28;19925;-84
2023/08/30 13:01:31;;;;;;;;;;;;;;;;;;5009358;28;20383;-84
2023/08/30 13:03:59;;;;;;;;;;;;;;;;;;5005358;28;19936;-86
2023/08/30 13:06:28;;;;;;;;;;;;;;;;;;5024775;28;19956;-85
2023/08/30 13:09:08;;;;;;;;;;;;;;;;;;5005128;28;19928;-85
2023/08/30 13:11:34;;;;;;;;;;;;;;;;;;5008963;28;20108;-86
2023/08/30 13:17:12;;;;;;;;;;;;;;;;;;5008444;28;19924;-86
2023/08/30 13:19:38;;;;;;;;;;;;;;;;;;5018638;28;19933;-85
2023/08/30 13:22:15;;;;;;;;;;;;;;;;;;5017445;28;19975;-86
2023/08/30 13:24:41;;;;;;;;;;;;;;;;;;5007482;28;19970;-86
2023/08/30 13:27:16;;;;;;;;;;;;;;;;;;5007207;28;20441;-86
2023/08/30 13:29:42;;;;;;;;;;;;;;;;;;5004361;28;19936;-86
2023/08/30 13:32:14;;;;;;;;;;;;;;;;;;5017846;28;19925;-86
2023/08/30 13:34:47;;;;;;;;;;;;;;;;;;4995731;28;20505;-86
2023/08/30 13:37:13;;;;;;;;;;;;;;;;;;5000900;28;19920;-86
2023/08/30 13:39:47;;;;;;;;;;;;;;;;;;4998281;28;19929;-86
2023/08/30 13:42:28;;;;;;;;;;;;;;;;;;4999578;28;20309;-86
2023/08/30 13:45:19;;;;;;;;;;;;;;;;;;5010352;28;19925;-86
2023/08/30 13:48:03;;;;;;;;;;;;;;;;;;;;;
2023/08/30 13:50:32;;;;;;;;;;;;;;;;;;5031651;28;19971;-85
2023/08/30 13:55:56;;;;;;;;;;;;;;;;;;4971195;28;20439;-85
2023/08/30 13:58:27;;;;;;;;;;;;;;;;;;4973224;28;20415;-86
2023/08/30 14:01:09;;;;;;;;;;;;;;;;;;4995350;28;20189;-86
2023/08/30 14:04:21;;;;;;;;;;;;;;;;;;4983911;28;21913;-86
2023/08/30 14:12:40;;;;;;;;;;;;;;;;;;;;;
2023/08/30 14:15:09;;;;;;;;;;;;;;;;;;5001488;28;19929;-86
2023/08/30 14:41:54;;;;;;;;;;;;;;;;;;4347177;26;19933;-88
2023/08/30 14:44:25;;;;;;;;;;;;;;;;;;5012751;28;20020;-88
2023/08/30 14:47:02;;;;;;;;;;;;;;;;;;4980925;28;19929;-88
2023/08/30 14:49:28;;;;;;;;;;;;;;;;;;4960144;28;20380;-88
2023/08/30 14:52:25;;;;;;;;;;;;;;;;;;4961954;28;19932;-88
2023/08/30 14:55:18;;;;;;;;;;;;;;;;;;4996936;28;20713;-89
2023/08/30 14:57:44;;;;;;;;;;;;;;;;;;4979954;28;20003;-88
2023/08/30 15:00:12;;;;;;;;;;;;;;;;;;4963705;28;19928;-88
2023/08/30 15:02:44;;;;;;;;;;;;;;;;;;4976950;28;19926;-88
2023/08/30 15:17:48;;;;;;;;;;;;;;;;;;4879811;29;20394;-89
2023/08/30 15:23:17;;;;;;;;;;;;;;;;;;;;;
2023/08/30 15:26:05;;;;;;;;;;;;;;;;;;;;;
2023/08/30 15:28:50;;;;;;;;;;;;;;;;;;;;;
2023/08/30 15:31:51;;;;;;;;;;;;;;;;;;4842625;29;20435;-88
2023/08/30 15:34:34;;;;;;;;;;;;;;;;;;4887014;29;19927;-88
2023/08/30 15:37:31;;;;;;;;;;;;;;;;;;;;;
2023/08/30 15:53:09;;;;;;;;;;;;;;;;;;;;;
2023/08/30 15:55:38;;;;;;;;;;;;;;;;;;4969632;28;19937;-86
2023/08/30 15:58:10;;;;;;;;;;;;;;;;;;4950980;28;19930;-86
2023/08/30 16:00:40;;;;;;;;;;;;;;;;;;4944804;28;19927;-86
2023/08/30 16:03:06;;;;;;;;;;;;;;;;;;4977263;28;19977;-86
2023/08/30 16:05:42;;;;;;;;;;;;;;;;;;;;;
2023/08/30 16:13:58;;;;;;;;;;;;;;;;;;4970096;28;19930;-84
2023/08/30 16:16:30;;;;;;;;;;;;;;;;;;4973178;28;20293;-86
2023/08/30 16:19:06;;;;;;;;;;;;;;;;;;4948131;28;19934;-86
2023/08/30 16:27:21;;;;;;;;;;;;;;;;;;4962533;28;20685;-85
2023/08/30 16:29:47;;;;;;;;;;;;;;;;;;4953775;28;19926;-86
2023/08/30 16:38:03;;;;;;;;;;;;;;;;;;4957179;28;19926;-85
2023/08/30 16:40:38;;;;;;;;;;;;;;;;;;4956845;28;19988;-85
2023/08/30 16:43:11;;;;;;;;;;;;;;;;;;4971927;28;19941;-86
2023/08/30 16:45:43;;;;;;;;;;;;;;;;;;4934948;28;20025;-85
2023/08/30 16:48:12;;;;;;;;;;;;;;;;;;4959470;28;20689;-85
2023/08/30 16:50:53;;;;;;;;;;;;;;;;;;;;;
2023/08/30 16:53:19;;;;;;;;;;;;;;;;;;4958739;28;20020;-86
2023/08/30 16:56:02;;;;;;;;;;;;;;;;;;;;;
2023/08/30 16:59:11;;;;;;;;;;;;;;;;;;4908615;29;19937;-86
2023/08/30 17:02:07;;;;;;;;;;;;;;;;;;;;;
2023/08/30 17:04:42;;;;;;;;;;;;;;;;;;4896819;29;20391;-86
2023/08/30 17:07:30;;;;;;;;;;;;;;;;;;4896087;29;19931;-86
2023/08/30 17:09:56;;;;;;;;;;;;;;;;;;4892406;28;19937;-86
2023/08/30 17:15:14;;;;;;;;;;;;;;;;;;4958342;28;19925;-87
2023/08/30 17:17:43;;;;;;;;;;;;;;;;;;4963959;28;19929;-86
2023/08/30 17:20:12;;;;;;;;;;;;;;;;;;4944798;28;19965;-86
2023/08/30 17:22:47;;;;;;;;;;;;;;;;;;4964995;28;20068;-86
2023/08/30 17:25:18;;;;;;;;;;;;;;;;;;4971267;28;19937;-87
2023/08/30 17:27:50;;;;;;;;;;;;;;;;;;4961099;28;20016;-86
2023/08/30 17:30:30;;;;;;;;;;;;;;;;;;4999113;28;20360;-87
2023/08/30 17:33:00;;;;;;;;;;;;;;;;;;4942760;28;19930;-86
2023/08/30 17:35:26;;;;;;;;;;;;;;;;;;4943563;28;19922;-87
2023/08/30 17:38:13;;;;;;;;;;;;;;;;;;4961334;28;19925;-85
2023/08/30 17:40:40;;;;;;;;;;;;;;;;;;4957345;28;20718;-86
2023/08/30 17:43:09;;;;;;;;;;;;;;;;;;4942684;28;20009;-86
2023/08/30 17:45:47;;;;;;;;;;;;;;;;;;4971409;28;19926;-86
2023/08/30 17:48:19;;;;;;;;;;;;;;;;;;4939935;28;19926;-86
2023/08/30 17:51:12;;;;;;;;;;;;;;;;;;4971797;28;21083;-86
2023/08/30 17:53:44;;;;;;;;;;;;;;;;;;4978342;28;19930;-86
2023/08/30 17:56:18;;;;;;;;;;;;;;;;;;4947946;28;20041;-86
2023/08/30 17:58:47;;;;;;;;;;;;;;;;;;4936103;28;20442;-86
2023/08/30 18:04:22;;;;;;;;;;;;;;;;;;4956315;28;19929;-87
2023/08/30 18:07:07;;;;;;;;;;;;;;;;;;;;;
2023/08/30 18:09:43;;;;;;;;;;;;;;;;;;;;;
2023/08/30 18:12:20;;;;;;;;;;;;;;;;;;;;;
2023/08/30 18:14:52;;;;;;;;;;;;;;;;;;4961117;28;19949;-86
2023/08/30 18:17:30;;;;;;;;;;;;;;;;;;;;;
2023/08/30 18:20:15;;;;;;;;;;;;;;;;;;4962142;28;19930;-86
2023/08/30 18:23:05;;;;;;;;;;;;;;;;;;4912250;29;20010;-86
2023/08/30 18:25:34;;;;;;;;;;;;;;;;;;4887555;29;19931;-86
2023/08/30 18:30:40;;;;;;;;;;;;;;;;;;5228290;23;20054;-86
2023/08/30 18:39:12;;;;;;;;;;;;;;;;;;4936915;28;20012;-86
2023/08/30 18:41:47;;;;;;;;;;;;;;;;;;4937130;28;19984;-85
2023/08/30 18:44:40;;;;;;;;;;;;;;;;;;4956718;28;19938;-85
2023/08/30 18:47:19;;;;;;;;;;;;;;;;;;4923304;28;19931;-86
2023/08/30 18:49:57;;;;;;;;;;;;;;;;;;4922291;28;19982;-86
2023/08/30 18:52:36;;;;;;;;;;;;;;;;;;;;;
2023/08/30 18:55:32;;;;;;;;;;;;;;;;;;;;;
2023/08/30 18:58:07;;;;;;;;;;;;;;;;;;4947296;28;19938;-85
2023/08/30 19:00:49;;;;;;;;;;;;;;;;;;4918581;28;19942;-86
2023/08/30 19:03:18;;;;;;;;;;;;;;;;;;4940133;28;19972;-85
2023/08/30 19:05:53;;;;;;;;;;;;;;;;;;4942630;28;19938;-85
2023/08/30 19:11:41;;;;;;;;;;;;;;;;;;4975065;28;20025;-86
2023/08/30 19:14:24;;;;;;;;;;;;;;;;;;4953884;28;19965;-86
2023/08/30 19:17:46;;;;;;;;;;;;;;;;;;4962241;28;20431;-86
2023/08/30 19:20:02;;;;;;;;;;;;;;;;;;4953008;28;19969;-85
2023/08/30 19:22:42;;;;;;;;;;;;;;;;;;4979512;28;19922;-86